sensor_id;sensor_type;location;lat;lon;timestamp;temperature;humidity
11136;DHT22;5622;50.840;4.948;2023-09-18T00:00:49;19.10;99.90
11136;DHT22;5622;50.840;4.948;2023-09-18T00:03:16;19.20;99.90
11136;DHT22;5622;50.840;4.948;2023-09-18T00:05:46;19.20;99.90
11136;DHT22;5622;50.840;4.948;2023-09-18T00:08:13;19.20;99.90
11136;DHT22;5622;50.840;4.948;2023-09-18T00:10:41;19.10;99.90
11136;DHT22;5622;50.840;4.948;2023-09-18T00:13:08;19.20;99.90
11136;DHT22;5622;50.840;4.948;2023-09-18T00:15:36;19.20;99.90
11136;DHT22;5622;50.840;4.948;2023-09-18T00:18:04;19.20;99.90
11136;DHT22;5622;50.840;4.948;2023-09-18T00:23:00;19.10;99.90
11136;DHT22;5622;50.840;4.948;2023-09-18T00:25:27;19.20;99.90
11136;DHT22;5622;50.840;4.948;2023-09-18T00:27:54;19.10;99.90
11136;DHT22;5622;50.840;4.948;2023-09-18T00:30:21;19.20;99.90
11136;DHT22;5622;50.840;4.948;2023-09-18T00:32:50;19.20;99.90
11136;DHT22;5622;50.840;4.948;2023-09-18T00:35:18;19.00;99.90
11136;DHT22;5622;50.840;4.948;2023-09-18T00:37:45;19.20;99.90
11136;DHT22;5622;50.840;4.948;2023-09-18T00:40:14;19.20;99.90
11136;DHT22;5622;50.840;4.948;2023-09-18T00:42:42;19.20;99.90
11136;DHT22;5622;50.840;4.948;2023-09-18T00:45:09;19.10;99.90
11136;DHT22;5622;50.840;4.948;2023-09-18T00:47:36;19.10;99.90
11136;DHT22;5622;50.840;4.948;2023-09-18T00:50:05;19.10;99.90
11136;DHT22;5622;50.840;4.948;2023-09-18T00:52:35;19.10;99.90
11136;DHT22;5622;50.840;4.948;2023-09-18T00:55:02;19.10;99.90
11136;DHT22;5622;50.840;4.948;2023-09-18T00:57:31;19.10;99.90
11136;DHT22;5622;50.840;4.948;2023-09-18T00:59:58;19.10;99.90
11136;DHT22;5622;50.840;4.948;2023-09-18T01:02:26;19.10;99.90
11136;DHT22;5622;50.840;4.948;2023-09-18T01:04:53;19.10;99.90
11136;DHT22;5622;50.840;4.948;2023-09-18T01:07:20;19.10;99.90
11136;DHT22;5622;50.840;4.948;2023-09-18T01:09:47;19.10;99.90
11136;DHT22;5622;50.840;4.948;2023-09-18T01:12:18;19.10;99.90
11136;DHT22;5622;50.840;4.948;2023-09-18T01:14:59;19.10;99.90
11136;DHT22;5622;50.840;4.948;2023-09-18T01:17:34;19.20;99.90
11136;DHT22;5622;50.840;4.948;2023-09-18T01:20:05;19.10;99.90
11136;DHT22;5622;50.840;4.948;2023-09-18T01:22:33;19.10;99.90
11136;DHT22;5622;50.840;4.948;2023-09-18T01:25:01;19.20;99.90
11136;DHT22;5622;50.840;4.948;2023-09-18T01:27:29;19.20;99.90
11136;DHT22;5622;50.840;4.948;2023-09-18T01:29:56;19.20;99.90
11136;DHT22;5622;50.840;4.948;2023-09-18T01:32:27;19.30;99.90
11136;DHT22;5622;50.840;4.948;2023-09-18T01:34:57;19.30;99.90
11136;DHT22;5622;50.840;4.948;2023-09-18T01:37:29;19.30;99.90
11136;DHT22;5622;50.840;4.948;2023-09-18T01:39:58;19.40;99.90
11136;DHT22;5622;50.840;4.948;2023-09-18T01:42:26;19.40;99.90
11136;DHT22;5622;50.840;4.948;2023-09-18T01:44:54;19.40;99.90
11136;DHT22;5622;50.840;4.948;2023-09-18T01:47:22;19.40;99.90
11136;DHT22;5622;50.840;4.948;2023-09-18T01:49:50;19.40;99.90
11136;DHT22;5622;50.840;4.948;2023-09-18T01:52:17;19.50;99.90
11136;DHT22;5622;50.840;4.948;2023-09-18T01:54:44;19.50;99.90
11136;DHT22;5622;50.840;4.948;2023-09-18T01:57:13;19.50;99.90
11136;DHT22;5622;50.840;4.948;2023-09-18T01:59:40;19.50;99.90
11136;DHT22;5622;50.840;4.948;2023-09-18T02:02:07;19.50;99.90
11136;DHT22;5622;50.840;4.948;2023-09-18T02:04:35;19.50;99.90
11136;DHT22;5622;50.840;4.948;2023-09-18T02:07:05;19.50;99.90
11136;DHT22;5622;50.840;4.948;2023-09-18T02:09:33;19.40;99.90
11136;DHT22;5622;50.840;4.948;2023-09-18T02:12:00;19.50;99.90
11136;DHT22;5622;50.840;4.948;2023-09-18T02:14:29;19.60;99.90
11136;DHT22;5622;50.840;4.948;2023-09-18T02:16:57;19.60;99.90
11136;DHT22;5622;50.840;4.948;2023-09-18T02:19:24;19.60;99.90
11136;DHT22;5622;50.840;4.948;2023-09-18T02:21:51;19.60;99.90
11136;DHT22;5622;50.840;4.948;2023-09-18T02:24:19;19.60;99.90
11136;DHT22;5622;50.840;4.948;2023-09-18T02:26:46;19.60;99.90
11136;DHT22;5622;50.840;4.948;2023-09-18T02:29:13;19.60;99.90
11136;DHT22;5622;50.840;4.948;2023-09-18T02:31:41;19.60;99.90
11136;DHT22;5622;50.840;4.948;2023-09-18T02:34:09;19.60;99.90
11136;DHT22;5622;50.840;4.948;2023-09-18T02:36:36;19.60;99.90
11136;DHT22;5622;50.840;4.948;2023-09-18T02:39:03;19.60;99.90
11136;DHT22;5622;50.840;4.948;2023-09-18T02:41:30;19.60;99.90
11136;DHT22;5622;50.840;4.948;2023-09-18T02:43:57;19.60;99.90
11136;DHT22;5622;50.840;4.948;2023-09-18T02:46:24;19.60;99.90
11136;DHT22;5622;50.840;4.948;2023-09-18T02:48:53;19.60;99.90
11136;DHT22;5622;50.840;4.948;2023-09-18T02:51:20;19.60;99.90
11136;DHT22;5622;50.840;4.948;2023-09-18T02:53:47;19.60;99.90
11136;DHT22;5622;50.840;4.948;2023-09-18T02:56:14;19.60;99.90
11136;DHT22;5622;50.840;4.948;2023-09-18T02:58:41;19.60;99.90
11136;DHT22;5622;50.840;4.948;2023-09-18T03:01:08;19.60;99.90
11136;DHT22;5622;50.840;4.948;2023-09-18T03:03:35;19.50;99.90
11136;DHT22;5622;50.840;4.948;2023-09-18T03:06:04;19.40;99.90
11136;DHT22;5622;50.840;4.948;2023-09-18T03:08:32;19.50;99.90
11136;DHT22;5622;50.840;4.948;2023-09-18T03:11:00;19.40;99.90
11136;DHT22;5622;50.840;4.948;2023-09-18T03:13:29;19.40;99.90
11136;DHT22;5622;50.840;4.948;2023-09-18T03:15:57;19.40;99.90
11136;DHT22;5622;50.840;4.948;2023-09-18T03:18:24;19.30;99.90
11136;DHT22;5622;50.840;4.948;2023-09-18T03:20:51;19.20;99.90
11136;DHT22;5622;50.840;4.948;2023-09-18T03:23:22;19.20;99.90
11136;DHT22;5622;50.840;4.948;2023-09-18T03:25:49;19.20;99.90
11136;DHT22;5622;50.840;4.948;2023-09-18T03:28:16;19.20;99.90
11136;DHT22;5622;50.840;4.948;2023-09-18T03:30:44;19.10;99.90
11136;DHT22;5622;50.840;4.948;2023-09-18T03:33:11;19.10;99.90
11136;DHT22;5622;50.840;4.948;2023-09-18T03:35:46;19.10;99.90
11136;DHT22;5622;50.840;4.948;2023-09-18T03:38:16;19.10;99.90
11136;DHT22;5622;50.840;4.948;2023-09-18T03:40:45;19.00;99.90
11136;DHT22;5622;50.840;4.948;2023-09-18T03:43:12;19.00;99.90
11136;DHT22;5622;50.840;4.948;2023-09-18T03:45:39;19.00;99.90
11136;DHT22;5622;50.840;4.948;2023-09-18T03:48:07;19.00;99.90
11136;DHT22;5622;50.840;4.948;2023-09-18T03:50:34;19.00;99.90
11136;DHT22;5622;50.840;4.948;2023-09-18T03:53:04;19.00;99.90
11136;DHT22;5622;50.840;4.948;2023-09-18T03:55:31;19.00;99.90
11136;DHT22;5622;50.840;4.948;2023-09-18T03:58:00;19.00;99.90
11136;DHT22;5622;50.840;4.948;2023-09-18T04:00:27;19.00;99.90
11136;DHT22;5622;50.840;4.948;2023-09-18T04:02:54;19.00;99.90
11136;DHT22;5622;50.840;4.948;2023-09-18T04:05:21;19.00;99.90
11136;DHT22;5622;50.840;4.948;2023-09-18T04:07:48;19.00;99.90
11136;DHT22;5622;50.840;4.948;2023-09-18T04:10:15;19.00;99.90
11136;DHT22;5622;50.840;4.948;2023-09-18T04:12:48;19.00;99.90
11136;DHT22;5622;50.840;4.948;2023-09-18T04:15:18;19.00;99.90
11136;DHT22;5622;50.840;4.948;2023-09-18T04:17:46;19.00;99.90
11136;DHT22;5622;50.840;4.948;2023-09-18T04:20:13;19.00;99.90
11136;DHT22;5622;50.840;4.948;2023-09-18T04:22:44;19.00;99.90
11136;DHT22;5622;50.840;4.948;2023-09-18T04:25:15;18.90;99.90
11136;DHT22;5622;50.840;4.948;2023-09-18T04:27:42;18.90;99.90
11136;DHT22;5622;50.840;4.948;2023-09-18T04:30:10;18.90;99.90
11136;DHT22;5622;50.840;4.948;2023-09-18T04:32:39;18.90;99.90
11136;DHT22;5622;50.840;4.948;2023-09-18T04:35:07;18.90;99.90
11136;DHT22;5622;50.840;4.948;2023-09-18T04:37:37;18.90;99.90
11136;DHT22;5622;50.840;4.948;2023-09-18T04:40:06;18.90;99.90
11136;DHT22;5622;50.840;4.948;2023-09-18T04:42:37;18.90;99.90
11136;DHT22;5622;50.840;4.948;2023-09-18T04:45:05;18.90;99.90
11136;DHT22;5622;50.840;4.948;2023-09-18T04:47:32;18.90;99.90
11136;DHT22;5622;50.840;4.948;2023-09-18T04:50:01;18.90;99.90
11136;DHT22;5622;50.840;4.948;2023-09-18T04:52:32;18.80;99.90
11136;DHT22;5622;50.840;4.948;2023-09-18T04:54:59;18.80;99.90
11136;DHT22;5622;50.840;4.948;2023-09-18T04:57:31;18.80;99.90
11136;DHT22;5622;50.840;4.948;2023-09-18T05:02:35;18.80;99.90
11136;DHT22;5622;50.840;4.948;2023-09-18T05:05:06;18.70;99.90
11136;DHT22;5622;50.840;4.948;2023-09-18T05:07:34;18.70;99.90
11136;DHT22;5622;50.840;4.948;2023-09-18T05:10:02;18.70;99.90
11136;DHT22;5622;50.840;4.948;2023-09-18T05:12:31;18.60;99.90
11136;DHT22;5622;50.840;4.948;2023-09-18T05:15:03;18.60;99.90
11136;DHT22;5622;50.840;4.948;2023-09-18T05:17:41;18.70;99.90
11136;DHT22;5622;50.840;4.948;2023-09-18T05:20:15;18.60;99.90
11136;DHT22;5622;50.840;4.948;2023-09-18T05:22:45;18.60;99.90
11136;DHT22;5622;50.840;4.948;2023-09-18T05:25:13;18.60;99.90
11136;DHT22;5622;50.840;4.948;2023-09-18T05:27:41;18.60;99.90
11136;DHT22;5622;50.840;4.948;2023-09-18T05:30:12;18.50;99.90
11136;DHT22;5622;50.840;4.948;2023-09-18T05:32:41;18.60;99.90
11136;DHT22;5622;50.840;4.948;2023-09-18T05:35:11;18.60;99.90
11136;DHT22;5622;50.840;4.948;2023-09-18T05:42:50;18.60;99.90
11136;DHT22;5622;50.840;4.948;2023-09-18T05:45:17;18.50;99.90
11136;DHT22;5622;50.840;4.948;2023-09-18T05:47:44;18.50;99.90
11136;DHT22;5622;50.840;4.948;2023-09-18T05:50:13;18.50;99.90
11136;DHT22;5622;50.840;4.948;2023-09-18T05:52:41;18.50;99.90
11136;DHT22;5622;50.840;4.948;2023-09-18T05:55:09;18.50;99.90
11136;DHT22;5622;50.840;4.948;2023-09-18T05:57:36;18.50;99.90
11136;DHT22;5622;50.840;4.948;2023-09-18T06:00:04;18.50;99.90
11136;DHT22;5622;50.840;4.948;2023-09-18T06:02:32;18.50;99.90
11136;DHT22;5622;50.840;4.948;2023-09-18T06:05:00;18.50;99.90
11136;DHT22;5622;50.840;4.948;2023-09-18T06:07:30;18.50;99.90
11136;DHT22;5622;50.840;4.948;2023-09-18T06:09:57;18.50;99.90
11136;DHT22;5622;50.840;4.948;2023-09-18T06:12:25;18.50;99.90
11136;DHT22;5622;50.840;4.948;2023-09-18T06:14:55;18.50;99.90
11136;DHT22;5622;50.840;4.948;2023-09-18T06:17:22;18.50;99.90
11136;DHT22;5622;50.840;4.948;2023-09-18T06:19:52;18.50;99.90
11136;DHT22;5622;50.840;4.948;2023-09-18T06:22:19;18.40;99.90
11136;DHT22;5622;50.840;4.948;2023-09-18T06:24:47;18.40;99.90
11136;DHT22;5622;50.840;4.948;2023-09-18T06:27:16;18.40;99.90
11136;DHT22;5622;50.840;4.948;2023-09-18T06:29:44;18.40;99.90
11136;DHT22;5622;50.840;4.948;2023-09-18T06:32:12;18.40;99.90
11136;DHT22;5622;50.840;4.948;2023-09-18T06:34:39;18.40;99.90
11136;DHT22;5622;50.840;4.948;2023-09-18T06:37:09;18.40;99.90
11136;DHT22;5622;50.840;4.948;2023-09-18T06:39:38;18.40;99.90
11136;DHT22;5622;50.840;4.948;2023-09-18T06:42:06;18.40;99.90
11136;DHT22;5622;50.840;4.948;2023-09-18T06:44:35;18.40;99.90
11136;DHT22;5622;50.840;4.948;2023-09-18T06:47:02;18.40;99.90
11136;DHT22;5622;50.840;4.948;2023-09-18T06:49:29;18.40;99.90
11136;DHT22;5622;50.840;4.948;2023-09-18T06:51:57;18.40;99.90
11136;DHT22;5622;50.840;4.948;2023-09-18T06:54:24;18.40;99.90
11136;DHT22;5622;50.840;4.948;2023-09-18T06:56:51;18.40;99.90
11136;DHT22;5622;50.840;4.948;2023-09-18T06:59:18;18.30;99.90
11136;DHT22;5622;50.840;4.948;2023-09-18T07:01:47;18.40;99.90
11136;DHT22;5622;50.840;4.948;2023-09-18T07:04:15;18.40;99.90
11136;DHT22;5622;50.840;4.948;2023-09-18T07:06:43;18.30;99.90
11136;DHT22;5622;50.840;4.948;2023-09-18T07:09:11;18.40;99.90
11136;DHT22;5622;50.840;4.948;2023-09-18T07:11:39;18.40;99.90
11136;DHT22;5622;50.840;4.948;2023-09-18T07:14:06;18.40;99.90
11136;DHT22;5622;50.840;4.948;2023-09-18T07:16:35;18.30;99.90
11136;DHT22;5622;50.840;4.948;2023-09-18T07:19:02;18.40;99.90
11136;DHT22;5622;50.840;4.948;2023-09-18T07:21:30;18.30;99.90
11136;DHT22;5622;50.840;4.948;2023-09-18T07:23:57;18.30;99.90
11136;DHT22;5622;50.840;4.948;2023-09-18T07:26:24;18.30;99.90
11136;DHT22;5622;50.840;4.948;2023-09-18T07:28:51;18.30;99.90
11136;DHT22;5622;50.840;4.948;2023-09-18T07:31:19;18.30;99.90
11136;DHT22;5622;50.840;4.948;2023-09-18T07:33:47;18.40;99.90
11136;DHT22;5622;50.840;4.948;2023-09-18T07:36:14;18.40;99.90
11136;DHT22;5622;50.840;4.948;2023-09-18T07:38:42;18.30;99.90
11136;DHT22;5622;50.840;4.948;2023-09-18T07:41:09;18.40;99.90
11136;DHT22;5622;50.840;4.948;2023-09-18T07:43:36;18.40;99.90
11136;DHT22;5622;50.840;4.948;2023-09-18T07:46:04;18.40;99.90
11136;DHT22;5622;50.840;4.948;2023-09-18T07:48:32;18.40;99.90
11136;DHT22;5622;50.840;4.948;2023-09-18T07:51:01;18.40;99.90
11136;DHT22;5622;50.840;4.948;2023-09-18T07:53:31;18.40;99.90
11136;DHT22;5622;50.840;4.948;2023-09-18T07:55:59;18.40;99.90
11136;DHT22;5622;50.840;4.948;2023-09-18T07:58:27;18.40;99.90
11136;DHT22;5622;50.840;4.948;2023-09-18T08:00:55;18.40;99.90
11136;DHT22;5622;50.840;4.948;2023-09-18T08:03:23;18.50;99.90
11136;DHT22;5622;50.840;4.948;2023-09-18T08:05:51;18.60;99.90
11136;DHT22;5622;50.840;4.948;2023-09-18T08:08:21;18.70;99.90
11136;DHT22;5622;50.840;4.948;2023-09-18T08:10:49;18.70;99.90
11136;DHT22;5622;50.840;4.948;2023-09-18T08:13:17;18.70;99.90
11136;DHT22;5622;50.840;4.948;2023-09-18T08:15:47;18.80;99.90
11136;DHT22;5622;50.840;4.948;2023-09-18T08:18:14;19.00;99.90
11136;DHT22;5622;50.840;4.948;2023-09-18T08:20:41;19.10;99.90
11136;DHT22;5622;50.840;4.948;2023-09-18T08:23:09;19.20;99.90
11136;DHT22;5622;50.840;4.948;2023-09-18T08:25:38;19.40;99.90
11136;DHT22;5622;50.840;4.948;2023-09-18T08:28:10;19.50;99.90
11136;DHT22;5622;50.840;4.948;2023-09-18T08:30:40;19.60;99.90
11136;DHT22;5622;50.840;4.948;2023-09-18T08:33:10;19.80;99.90
11136;DHT22;5622;50.840;4.948;2023-09-18T08:35:37;19.80;99.90
11136;DHT22;5622;50.840;4.948;2023-09-18T08:38:05;19.90;99.90
11136;DHT22;5622;50.840;4.948;2023-09-18T08:40:33;20.00;99.90
11136;DHT22;5622;50.840;4.948;2023-09-18T08:43:03;20.00;99.90
11136;DHT22;5622;50.840;4.948;2023-09-18T08:45:37;20.00;99.90
11136;DHT22;5622;50.840;4.948;2023-09-18T08:48:06;20.00;99.90
11136;DHT22;5622;50.840;4.948;2023-09-18T08:50:36;20.00;99.90
11136;DHT22;5622;50.840;4.948;2023-09-18T08:53:06;19.90;99.90
11136;DHT22;5622;50.840;4.948;2023-09-18T08:55:34;19.90;99.90
11136;DHT22;5622;50.840;4.948;2023-09-18T08:58:06;19.80;99.90
11136;DHT22;5622;50.840;4.948;2023-09-18T09:00:33;19.80;99.90
11136;DHT22;5622;50.840;4.948;2023-09-18T09:03:02;19.80;99.90
11136;DHT22;5622;50.840;4.948;2023-09-18T09:05:31;19.80;99.90
11136;DHT22;5622;50.840;4.948;2023-09-18T09:07:58;19.80;99.90
11136;DHT22;5622;50.840;4.948;2023-09-18T09:10:25;19.70;99.90
11136;DHT22;5622;50.840;4.948;2023-09-18T09:12:54;19.70;99.90
11136;DHT22;5622;50.840;4.948;2023-09-18T09:15:24;19.60;99.90
11136;DHT22;5622;50.840;4.948;2023-09-18T09:17:55;19.80;99.90
11136;DHT22;5622;50.840;4.948;2023-09-18T09:20:28;19.70;99.90
11136;DHT22;5622;50.840;4.948;2023-09-18T09:23:00;19.70;99.90
11136;DHT22;5622;50.840;4.948;2023-09-18T09:25:28;19.80;99.90
11136;DHT22;5622;50.840;4.948;2023-09-18T09:27:57;19.80;99.90
11136;DHT22;5622;50.840;4.948;2023-09-18T09:30:28;19.80;99.90
11136;DHT22;5622;50.840;4.948;2023-09-18T09:32:59;19.70;99.90
11136;DHT22;5622;50.840;4.948;2023-09-18T09:35:29;19.70;99.90
11136;DHT22;5622;50.840;4.948;2023-09-18T09:37:58;19.70;99.90
11136;DHT22;5622;50.840;4.948;2023-09-18T09:40:28;19.80;99.90
11136;DHT22;5622;50.840;4.948;2023-09-18T09:42:57;19.70;99.90
11136;DHT22;5622;50.840;4.948;2023-09-18T09:45:30;19.60;99.90
11136;DHT22;5622;50.840;4.948;2023-09-18T09:48:04;19.60;99.90
11136;DHT22;5622;50.840;4.948;2023-09-18T09:50:31;19.20;99.90
11136;DHT22;5622;50.840;4.948;2023-09-18T09:52:59;19.50;99.90
11136;DHT22;5622;50.840;4.948;2023-09-18T09:55:29;19.50;99.90
11136;DHT22;5622;50.840;4.948;2023-09-18T09:57:57;19.40;99.90
11136;DHT22;5622;50.840;4.948;2023-09-18T10:00:32;19.40;99.90
11136;DHT22;5622;50.840;4.948;2023-09-18T10:03:04;19.40;99.90
11136;DHT22;5622;50.840;4.948;2023-09-18T10:05:34;19.40;99.90
11136;DHT22;5622;50.840;4.948;2023-09-18T10:08:04;19.40;99.90
11136;DHT22;5622;50.840;4.948;2023-09-18T10:10:35;19.40;99.90
11136;DHT22;5622;50.840;4.948;2023-09-18T10:13:09;19.50;99.90
11136;DHT22;5622;50.840;4.948;2023-09-18T10:15:39;19.50;99.90
11136;DHT22;5622;50.840;4.948;2023-09-18T10:18:18;19.60;99.90
11136;DHT22;5622;50.840;4.948;2023-09-18T10:20:47;19.60;99.90
11136;DHT22;5622;50.840;4.948;2023-09-18T10:23:23;19.80;99.90
11136;DHT22;5622;50.840;4.948;2023-09-18T10:25:55;19.80;99.90
11136;DHT22;5622;50.840;4.948;2023-09-18T10:28:26;19.90;99.90
11136;DHT22;5622;50.840;4.948;2023-09-18T10:30:58;19.90;99.90
11136;DHT22;5622;50.840;4.948;2023-09-18T10:33:28;19.90;99.90
11136;DHT22;5622;50.840;4.948;2023-09-18T10:35:56;19.90;99.90
11136;DHT22;5622;50.840;4.948;2023-09-18T10:38:25;19.80;99.90
11136;DHT22;5622;50.840;4.948;2023-09-18T10:40:54;20.00;99.90
11136;DHT22;5622;50.840;4.948;2023-09-18T10:43:22;20.20;99.90
11136;DHT22;5622;50.840;4.948;2023-09-18T10:45:50;20.20;99.90
11136;DHT22;5622;50.840;4.948;2023-09-18T10:48:20;20.40;99.90
11136;DHT22;5622;50.840;4.948;2023-09-18T10:50:50;20.50;99.90
11136;DHT22;5622;50.840;4.948;2023-09-18T10:53:20;20.40;99.90
11136;DHT22;5622;50.840;4.948;2023-09-18T10:55:49;20.50;99.90
11136;DHT22;5622;50.840;4.948;2023-09-18T10:58:24;20.90;99.90
11136;DHT22;5622;50.840;4.948;2023-09-18T11:00:54;20.40;99.90
11136;DHT22;5622;50.840;4.948;2023-09-18T11:03:24;20.40;99.90
11136;DHT22;5622;50.840;4.948;2023-09-18T11:06:07;20.20;99.90
11136;DHT22;5622;50.840;4.948;2023-09-18T11:08:43;20.50;99.90
11136;DHT22;5622;50.840;4.948;2023-09-18T11:11:12;20.40;99.90
11136;DHT22;5622;50.840;4.948;2023-09-18T11:13:41;20.40;99.90
11136;DHT22;5622;50.840;4.948;2023-09-18T11:16:33;20.40;99.90
11136;DHT22;5622;50.840;4.948;2023-09-18T11:19:16;20.40;99.90
11136;DHT22;5622;50.840;4.948;2023-09-18T11:21:45;20.40;99.90
11136;DHT22;5622;50.840;4.948;2023-09-18T11:24:17;20.40;99.90
11136;DHT22;5622;50.840;4.948;2023-09-18T11:26:46;20.40;99.90
11136;DHT22;5622;50.840;4.948;2023-09-18T11:29:15;20.40;99.90
11136;DHT22;5622;50.840;4.948;2023-09-18T11:31:47;20.40;99.90
11136;DHT22;5622;50.840;4.948;2023-09-18T11:34:23;20.40;99.90
11136;DHT22;5622;50.840;4.948;2023-09-18T11:36:53;20.30;99.90
11136;DHT22;5622;50.840;4.948;2023-09-18T11:39:35;20.40;99.90
11136;DHT22;5622;50.840;4.948;2023-09-18T11:42:08;20.50;99.90
11136;DHT22;5622;50.840;4.948;2023-09-18T11:44:35;20.50;99.90
11136;DHT22;5622;50.840;4.948;2023-09-18T11:47:14;20.70;99.90
11136;DHT22;5622;50.840;4.948;2023-09-18T11:49:50;20.70;99.90
11136;DHT22;5622;50.840;4.948;2023-09-18T11:52:21;20.60;99.90
11136;DHT22;5622;50.840;4.948;2023-09-18T11:54:48;20.60;99.90
11136;DHT22;5622;50.840;4.948;2023-09-18T11:57:18;20.60;99.90
11136;DHT22;5622;50.840;4.948;2023-09-18T11:59:46;20.50;99.90
11136;DHT22;5622;50.840;4.948;2023-09-18T12:02:13;20.50;99.90
11136;DHT22;5622;50.840;4.948;2023-09-18T12:04:46;20.40;99.90
11136;DHT22;5622;50.840;4.948;2023-09-18T12:07:15;20.50;99.90
11136;DHT22;5622;50.840;4.948;2023-09-18T12:09:43;20.50;99.90
11136;DHT22;5622;50.840;4.948;2023-09-18T12:12:14;20.50;99.90
11136;DHT22;5622;50.840;4.948;2023-09-18T12:14:43;20.40;99.90
11136;DHT22;5622;50.840;4.948;2023-09-18T12:17:14;20.50;99.90
11136;DHT22;5622;50.840;4.948;2023-09-18T12:19:51;20.60;99.90
11136;DHT22;5622;50.840;4.948;2023-09-18T12:22:25;20.60;99.90
11136;DHT22;5622;50.840;4.948;2023-09-18T12:24:52;20.60;99.90
11136;DHT22;5622;50.840;4.948;2023-09-18T12:27:20;20.50;99.90
11136;DHT22;5622;50.840;4.948;2023-09-18T12:29:47;20.60;99.90
11136;DHT22;5622;50.840;4.948;2023-09-18T12:32:14;20.60;99.90
11136;DHT22;5622;50.840;4.948;2023-09-18T12:34:42;20.60;99.90
11136;DHT22;5622;50.840;4.948;2023-09-18T12:37:09;20.60;99.90
11136;DHT22;5622;50.840;4.948;2023-09-18T12:39:41;20.50;99.90
11136;DHT22;5622;50.840;4.948;2023-09-18T12:42:08;20.50;99.90
11136;DHT22;5622;50.840;4.948;2023-09-18T12:44:35;20.50;99.90
11136;DHT22;5622;50.840;4.948;2023-09-18T12:47:03;20.50;99.90
11136;DHT22;5622;50.840;4.948;2023-09-18T12:49:31;20.50;99.90
11136;DHT22;5622;50.840;4.948;2023-09-18T12:52:00;20.50;99.90
11136;DHT22;5622;50.840;4.948;2023-09-18T12:54:37;20.60;99.90
11136;DHT22;5622;50.840;4.948;2023-09-18T12:57:08;20.50;99.90
11136;DHT22;5622;50.840;4.948;2023-09-18T12:59:36;20.60;99.90
11136;DHT22;5622;50.840;4.948;2023-09-18T13:02:04;20.50;99.90
11136;DHT22;5622;50.840;4.948;2023-09-18T13:04:35;20.60;99.90
11136;DHT22;5622;50.840;4.948;2023-09-18T13:07:06;20.60;99.90
11136;DHT22;5622;50.840;4.948;2023-09-18T13:09:34;20.60;99.90
11136;DHT22;5622;50.840;4.948;2023-09-18T13:12:03;20.60;99.90
11136;DHT22;5622;50.840;4.948;2023-09-18T13:14:58;20.60;99.90
11136;DHT22;5622;50.840;4.948;2023-09-18T13:17:40;20.60;99.90
11136;DHT22;5622;50.840;4.948;2023-09-18T13:20:15;20.60;99.90
11136;DHT22;5622;50.840;4.948;2023-09-18T13:22:48;20.50;99.90
11136;DHT22;5622;50.840;4.948;2023-09-18T13:25:19;20.60;99.90
11136;DHT22;5622;50.840;4.948;2023-09-18T13:27:48;20.60;99.90
11136;DHT22;5622;50.840;4.948;2023-09-18T13:30:17;20.60;99.90
11136;DHT22;5622;50.840;4.948;2023-09-18T13:32:46;20.60;99.90
11136;DHT22;5622;50.840;4.948;2023-09-18T13:35:15;20.50;99.90
11136;DHT22;5622;50.840;4.948;2023-09-18T13:37:42;20.40;99.90
11136;DHT22;5622;50.840;4.948;2023-09-18T13:40:11;20.70;99.90
11136;DHT22;5622;50.840;4.948;2023-09-18T13:42:38;20.60;99.90
11136;DHT22;5622;50.840;4.948;2023-09-18T13:45:07;20.60;99.90
11136;DHT22;5622;50.840;4.948;2023-09-18T13:47:36;20.60;99.90
11136;DHT22;5622;50.840;4.948;2023-09-18T13:50:05;20.60;99.90
11136;DHT22;5622;50.840;4.948;2023-09-18T13:52:34;20.60;99.90
11136;DHT22;5622;50.840;4.948;2023-09-18T13:55:03;20.60;99.90
11136;DHT22;5622;50.840;4.948;2023-09-18T13:57:31;20.60;99.90
11136;DHT22;5622;50.840;4.948;2023-09-18T14:00:00;20.60;99.90
11136;DHT22;5622;50.840;4.948;2023-09-18T14:02:30;20.70;99.90
11136;DHT22;5622;50.840;4.948;2023-09-18T14:04:59;20.70;99.90
11136;DHT22;5622;50.840;4.948;2023-09-18T14:07:29;20.70;99.90
11136;DHT22;5622;50.840;4.948;2023-09-18T14:09:56;20.70;99.90
11136;DHT22;5622;50.840;4.948;2023-09-18T14:12:26;20.70;99.90
11136;DHT22;5622;50.840;4.948;2023-09-18T14:14:53;20.70;99.90
11136;DHT22;5622;50.840;4.948;2023-09-18T14:17:20;20.70;99.90
11136;DHT22;5622;50.840;4.948;2023-09-18T14:19:47;20.80;99.90
11136;DHT22;5622;50.840;4.948;2023-09-18T14:22:16;20.80;99.90
11136;DHT22;5622;50.840;4.948;2023-09-18T14:24:43;20.80;99.90
11136;DHT22;5622;50.840;4.948;2023-09-18T14:27:10;20.80;99.90
11136;DHT22;5622;50.840;4.948;2023-09-18T14:29:38;20.80;99.90
11136;DHT22;5622;50.840;4.948;2023-09-18T14:32:06;20.80;99.90
11136;DHT22;5622;50.840;4.948;2023-09-18T14:34:34;20.80;99.90
11136;DHT22;5622;50.840;4.948;2023-09-18T14:37:01;20.80;99.90
11136;DHT22;5622;50.840;4.948;2023-09-18T14:39:32;20.80;99.90
11136;DHT22;5622;50.840;4.948;2023-09-18T14:42:01;20.80;99.90
11136;DHT22;5622;50.840;4.948;2023-09-18T14:44:28;20.80;99.90
11136;DHT22;5622;50.840;4.948;2023-09-18T14:47:11;20.80;99.90
11136;DHT22;5622;50.840;4.948;2023-09-18T14:49:38;20.80;99.90
11136;DHT22;5622;50.840;4.948;2023-09-18T14:52:06;20.90;99.90
11136;DHT22;5622;50.840;4.948;2023-09-18T14:54:35;20.50;99.90
11136;DHT22;5622;50.840;4.948;2023-09-18T14:57:02;20.80;99.90
11136;DHT22;5622;50.840;4.948;2023-09-18T14:59:29;20.80;99.90
11136;DHT22;5622;50.840;4.948;2023-09-18T15:01:58;20.80;99.90
11136;DHT22;5622;50.840;4.948;2023-09-18T15:04:25;20.80;99.90
11136;DHT22;5622;50.840;4.948;2023-09-18T15:06:52;20.80;99.90
11136;DHT22;5622;50.840;4.948;2023-09-18T15:09:20;20.80;99.90
11136;DHT22;5622;50.840;4.948;2023-09-18T15:11:49;20.80;99.90
11136;DHT22;5622;50.840;4.948;2023-09-18T15:14:16;20.80;99.90
11136;DHT22;5622;50.840;4.948;2023-09-18T15:16:43;20.80;99.90
11136;DHT22;5622;50.840;4.948;2023-09-18T15:19:10;20.80;99.90
11136;DHT22;5622;50.840;4.948;2023-09-18T15:21:39;20.90;99.90
11136;DHT22;5622;50.840;4.948;2023-09-18T15:24:07;20.90;99.90
11136;DHT22;5622;50.840;4.948;2023-09-18T15:26:36;21.00;99.90
11136;DHT22;5622;50.840;4.948;2023-09-18T15:29:05;21.00;99.90
11136;DHT22;5622;50.840;4.948;2023-09-18T15:31:34;21.00;99.90
11136;DHT22;5622;50.840;4.948;2023-09-18T15:34:01;21.10;99.90
11136;DHT22;5622;50.840;4.948;2023-09-18T15:36:28;21.00;99.90
11136;DHT22;5622;50.840;4.948;2023-09-18T15:38:56;21.00;99.90
11136;DHT22;5622;50.840;4.948;2023-09-18T15:41:26;20.90;99.90
11136;DHT22;5622;50.840;4.948;2023-09-18T15:43:55;20.90;99.90
11136;DHT22;5622;50.840;4.948;2023-09-18T15:46:24;20.90;99.90
11136;DHT22;5622;50.840;4.948;2023-09-18T15:48:51;20.90;99.90
11136;DHT22;5622;50.840;4.948;2023-09-18T15:51:24;20.90;99.90
11136;DHT22;5622;50.840;4.948;2023-09-18T15:54:00;20.80;99.90
11136;DHT22;5622;50.840;4.948;2023-09-18T15:56:27;20.80;99.90
11136;DHT22;5622;50.840;4.948;2023-09-18T15:58:57;20.50;99.90
11136;DHT22;5622;50.840;4.948;2023-09-18T16:01:26;20.70;99.90
11136;DHT22;5622;50.840;4.948;2023-09-18T16:03:54;20.60;99.90
11136;DHT22;5622;50.840;4.948;2023-09-18T16:06:24;20.70;99.90